Aeroporto :
LOGIN :

Iscrizione | Disclaimer

   EN    FR    IT 

 










Sommario :    VFR   VFR Marginale   IFR   IFR Intensivo   IFR Molto Intensivo
Visibilità : 
Base nubi : 
>= 8 km
>= 3000ft
5 / 8 km
1000 / 3000 ft
1500m / 5 km
500 / 1000 ft
800 / 1500m
200 / 500 ft
< 800m
< 200 ft
Simboli :   Temporali  Nebbia  Neve Forte  Precipitazioni Forti  Vento > 20 kt
SIGMETs :   Varie  Temporali  Ghiacco  Turbolenza  Onda orograficha  Ceneri Vulcaniche






- Altitudine del aeroporto : 284 ft


EGUW - RAF Wattisham

ULTIMO METAR :
  • 211420Z 35010KT 9999 -RA SCT011 BKN050 12/11 Q1018 NOSIG RMK GRN GRN

METARs OBSOLETI :
  • 211350Z 36013KT 9999 -RA SCT012 BKN050 12/10 Q1018 NOSIG RMK GRN GRN
  • 211320Z 36013KT 9999 SCT012 BKN050 12/10 Q1018 GRN NOSIG RMK GRN GRN
  • 211250Z 36012KT 9999 SCT010 BKN050 12/10 Q1017 NOSIG RMK GRN GRN
  • 211220Z 36015KT 9999 SCT010 BKN050 12/10 Q1017 NOSIG RMK GRN GRN
  • 211150Z 36014KT 9999 SCT010 BKN050 12/11 Q1017 NOSIG RMK GRN GRN

TAF TAF EGUW
Valido dal 21 a 15 ore il 22 a 00 ore UTC


211329Z 2115/2124 36010KT 9999 SCT012 BKN045
BECMG 2115/2118 FEW012 BKN045



MetMap, La meteo Aeronautica in un colpo d'occhio ! - Copyright ORBIFLY Dicembre 2007 - Disclaimer

ORBIFLY MET'MAP TEAM :

Programmazione e sviluppo : Alexandra Zaïnal
Concezione e sviluppo : Baudouin d'Aumeries
Co-Programmazione e sviluppo : Marc-Olivier Méhu
Supporto tecnico e logistico : Manuel Goepfert
Aiuto per la traduzione : Arnaldo La Scala

Contatto : metmap@orbifly.com




FONTI E CREDITI :

   NOAA